sensor_id;sensor_type;location;lat;lon;timestamp;temperature;humidity
24744;DHT22;12844;52.110;5.548;2022-09-20T00:00:03;22.20;53.60
24744;DHT22;12844;52.110;5.548;2022-09-20T00:02:29;22.20;53.70
24744;DHT22;12844;52.110;5.548;2022-09-20T00:04:55;22.20;53.70
24744;DHT22;12844;52.110;5.548;2022-09-20T00:07:21;22.20;53.60
24744;DHT22;12844;52.110;5.548;2022-09-20T00:09:46;22.20;53.60
24744;DHT22;12844;52.110;5.548;2022-09-20T00:12:12;22.20;53.70
24744;DHT22;12844;52.110;5.548;2022-09-20T00:14:37;22.10;53.50
24744;DHT22;12844;52.110;5.548;2022-09-20T00:17:03;22.20;53.60
24744;DHT22;12844;52.110;5.548;2022-09-20T00:19:28;22.20;53.60
24744;DHT22;12844;52.110;5.548;2022-09-20T00:21:54;22.10;53.50
24744;DHT22;12844;52.110;5.548;2022-09-20T00:24:19;22.10;53.50
24744;DHT22;12844;52.110;5.548;2022-09-20T00:26:45;22.10;53.50
24744;DHT22;12844;52.110;5.548;2022-09-20T00:29:10;22.10;53.50
24744;DHT22;12844;52.110;5.548;2022-09-20T00:31:37;22.10;53.50
24744;DHT22;12844;52.110;5.548;2022-09-20T00:34:04;22.10;53.60
24744;DHT22;12844;52.110;5.548;2022-09-20T00:36:48;22.10;53.60
24744;DHT22;12844;52.110;5.548;2022-09-20T00:39:14;22.10;53.50
24744;DHT22;12844;52.110;5.548;2022-09-20T00:41:40;22.10;53.50
24744;DHT22;12844;52.110;5.548;2022-09-20T00:44:41;22.10;53.50
24744;DHT22;12844;52.110;5.548;2022-09-20T00:47:23;22.10;53.50
24744;DHT22;12844;52.110;5.548;2022-09-20T00:49:53;22.00;53.50
24744;DHT22;12844;52.110;5.548;2022-09-20T00:52:20;22.00;53.50
24744;DHT22;12844;52.110;5.548;2022-09-20T00:54:46;22.00;53.50
24744;DHT22;12844;52.110;5.548;2022-09-20T00:57:12;22.00;53.50
24744;DHT22;12844;52.110;5.548;2022-09-20T00:59:40;22.00;53.50
24744;DHT22;12844;52.110;5.548;2022-09-20T01:02:15;22.00;53.40
24744;DHT22;12844;52.110;5.548;2022-09-20T01:04:42;22.10;53.50
24744;DHT22;12844;52.110;5.548;2022-09-20T01:07:10;22.00;53.50
24744;DHT22;12844;52.110;5.548;2022-09-20T01:09:37;22.10;53.50
24744;DHT22;12844;52.110;5.548;2022-09-20T01:12:12;22.00;53.40
24744;DHT22;12844;52.110;5.548;2022-09-20T01:14:38;22.00;53.40
24744;DHT22;12844;52.110;5.548;2022-09-20T01:17:05;22.00;53.40
24744;DHT22;12844;52.110;5.548;2022-09-20T01:19:48;22.00;53.30
24744;DHT22;12844;52.110;5.548;2022-09-20T01:22:25;22.00;53.30
24744;DHT22;12844;52.110;5.548;2022-09-20T01:25:08;22.00;53.40
24744;DHT22;12844;52.110;5.548;2022-09-20T01:30:22;22.00;53.40
24744;DHT22;12844;52.110;5.548;2022-09-20T01:33:11;22.00;53.40
24744;DHT22;12844;52.110;5.548;2022-09-20T01:35:43;22.00;53.30
24744;DHT22;12844;52.110;5.548;2022-09-20T01:38:14;22.00;53.40
24744;DHT22;12844;52.110;5.548;2022-09-20T01:46:00;22.00;53.40
24744;DHT22;12844;52.110;5.548;2022-09-20T01:48:37;22.00;53.30
24744;DHT22;12844;52.110;5.548;2022-09-20T01:56:39;22.00;53.30
24744;DHT22;12844;52.110;5.548;2022-09-20T02:07:46;21.90;53.50
24744;DHT22;12844;52.110;5.548;2022-09-20T02:11:28;21.90;53.40
24744;DHT22;12844;52.110;5.548;2022-09-20T02:16:27;21.90;53.50
24744;DHT22;12844;52.110;5.548;2022-09-20T02:24:38;21.90;53.40
24744;DHT22;12844;52.110;5.548;2022-09-20T02:36:00;21.90;53.40
24744;DHT22;12844;52.110;5.548;2022-09-20T02:38:44;21.90;53.30
24744;DHT22;12844;52.110;5.548;2022-09-20T02:47:01;21.80;53.30
24744;DHT22;12844;52.110;5.548;2022-09-20T02:52:43;21.90;53.20
24744;DHT22;12844;52.110;5.548;2022-09-20T02:58:08;21.90;53.30
24744;DHT22;12844;52.110;5.548;2022-09-20T03:00:52;21.80;53.20
24744;DHT22;12844;52.110;5.548;2022-09-20T03:03:28;21.90;53.30
24744;DHT22;12844;52.110;5.548;2022-09-20T03:09:20;21.80;53.10
24744;DHT22;12844;52.110;5.548;2022-09-20T03:12:18;21.80;53.10
24744;DHT22;12844;52.110;5.548;2022-09-20T03:15:03;21.90;53.20
24744;DHT22;12844;52.110;5.548;2022-09-20T03:17:42;21.80;53.20
24744;DHT22;12844;52.110;5.548;2022-09-20T03:26:30;21.80;53.20
24744;DHT22;12844;52.110;5.548;2022-09-20T03:42:28;21.80;53.20
24744;DHT22;12844;52.110;5.548;2022-09-20T03:50:53;21.80;53.10
24744;DHT22;12844;52.110;5.548;2022-09-20T03:53:39;21.80;53.00
24744;DHT22;12844;52.110;5.548;2022-09-20T04:02:29;21.80;53.10
24744;DHT22;12844;52.110;5.548;2022-09-20T04:05:15;21.80;53.20
24744;DHT22;12844;52.110;5.548;2022-09-20T04:10:34;21.70;53.10
24744;DHT22;12844;52.110;5.548;2022-09-20T04:16:09;21.80;53.00
24744;DHT22;12844;52.110;5.548;2022-09-20T04:21:52;21.80;53.00
24744;DHT22;12844;52.110;5.548;2022-09-20T04:27:00;21.70;53.10
24744;DHT22;12844;52.110;5.548;2022-09-20T04:29:36;21.80;53.10
24744;DHT22;12844;52.110;5.548;2022-09-20T04:35:15;21.70;53.00
24744;DHT22;12844;52.110;5.548;2022-09-20T04:38:02;21.70;52.90
24744;DHT22;12844;52.110;5.548;2022-09-20T04:54:26;21.70;52.90
24744;DHT22;12844;52.110;5.548;2022-09-20T04:57:14;21.70;53.00
24744;DHT22;12844;52.110;5.548;2022-09-20T05:11:19;21.70;53.00
24744;DHT22;12844;52.110;5.548;2022-09-20T05:14:14;21.70;52.90
24744;DHT22;12844;52.110;5.548;2022-09-20T05:16:59;21.60;52.90
24744;DHT22;12844;52.110;5.548;2022-09-20T05:19:45;21.60;53.00
24744;DHT22;12844;52.110;5.548;2022-09-20T05:31:48;21.60;53.00
24744;DHT22;12844;52.110;5.548;2022-09-20T05:34:45;21.60;53.00
24744;DHT22;12844;52.110;5.548;2022-09-20T05:37:33;21.60;53.00
24744;DHT22;12844;52.110;5.548;2022-09-20T05:40:15;21.60;53.00
24744;DHT22;12844;52.110;5.548;2022-09-20T05:48:28;21.60;52.90
24744;DHT22;12844;52.110;5.548;2022-09-20T05:56:53;21.60;52.90
24744;DHT22;12844;52.110;5.548;2022-09-20T06:02:43;21.60;52.90
24744;DHT22;12844;52.110;5.548;2022-09-20T06:05:14;21.60;52.80
24744;DHT22;12844;52.110;5.548;2022-09-20T06:07:54;21.50;52.80
24744;DHT22;12844;52.110;5.548;2022-09-20T06:16:52;21.50;52.80
24744;DHT22;12844;52.110;5.548;2022-09-20T06:19:27;21.50;52.80
24744;DHT22;12844;52.110;5.548;2022-09-20T06:22:02;21.50;52.80
24744;DHT22;12844;52.110;5.548;2022-09-20T06:24:41;21.50;52.80
24744;DHT22;12844;52.110;5.548;2022-09-20T06:27:17;21.50;52.80
24744;DHT22;12844;52.110;5.548;2022-09-20T06:29:48;21.50;52.80
24744;DHT22;12844;52.110;5.548;2022-09-20T06:32:16;21.50;52.80
24744;DHT22;12844;52.110;5.548;2022-09-20T06:34:41;21.50;52.80
24744;DHT22;12844;52.110;5.548;2022-09-20T06:43:17;21.50;52.70
24744;DHT22;12844;52.110;5.548;2022-09-20T06:45:43;21.50;52.80
24744;DHT22;12844;52.110;5.548;2022-09-20T06:48:09;21.40;52.90
24744;DHT22;12844;52.110;5.548;2022-09-20T06:50:38;21.50;52.80
24744;DHT22;12844;52.110;5.548;2022-09-20T06:53:04;21.50;52.80
24744;DHT22;12844;52.110;5.548;2022-09-20T06:55:34;21.50;52.80
24744;DHT22;12844;52.110;5.548;2022-09-20T06:58:05;21.50;52.80
24744;DHT22;12844;52.110;5.548;2022-09-20T07:00:31;21.50;52.70
24744;DHT22;12844;52.110;5.548;2022-09-20T07:02:57;21.50;52.70
24744;DHT22;12844;52.110;5.548;2022-09-20T07:05:22;21.50;52.70
24744;DHT22;12844;52.110;5.548;2022-09-20T07:07:48;21.50;52.70
24744;DHT22;12844;52.110;5.548;2022-09-20T07:10:14;21.60;52.70
24744;DHT22;12844;52.110;5.548;2022-09-20T07:12:41;21.60;52.70
24744;DHT22;12844;52.110;5.548;2022-09-20T07:15:07;21.60;52.70
24744;DHT22;12844;52.110;5.548;2022-09-20T07:17:33;21.50;52.80
24744;DHT22;12844;52.110;5.548;2022-09-20T07:19:59;21.50;52.80
24744;DHT22;12844;52.110;5.548;2022-09-20T07:22:25;21.50;52.90
24744;DHT22;12844;52.110;5.548;2022-09-20T07:24:51;21.50;53.20
24744;DHT22;12844;52.110;5.548;2022-09-20T07:27:17;21.60;53.20
24744;DHT22;12844;52.110;5.548;2022-09-20T07:29:42;21.60;53.00
24744;DHT22;12844;52.110;5.548;2022-09-20T07:32:08;21.60;53.00
24744;DHT22;12844;52.110;5.548;2022-09-20T07:34:33;21.70;53.20
24744;DHT22;12844;52.110;5.548;2022-09-20T07:36:59;21.70;53.20
24744;DHT22;12844;52.110;5.548;2022-09-20T07:39:25;21.70;53.20
24744;DHT22;12844;52.110;5.548;2022-09-20T07:41:51;21.70;53.90
24744;DHT22;12844;52.110;5.548;2022-09-20T07:44:17;21.70;53.30
24744;DHT22;12844;52.110;5.548;2022-09-20T07:47:07;21.70;53.30
24744;DHT22;12844;52.110;5.548;2022-09-20T07:49:34;21.70;53.30
24744;DHT22;12844;52.110;5.548;2022-09-20T07:52:00;21.80;53.40
24744;DHT22;12844;52.110;5.548;2022-09-20T07:54:26;21.80;53.40
24744;DHT22;12844;52.110;5.548;2022-09-20T07:56:52;21.80;53.40
24744;DHT22;12844;52.110;5.548;2022-09-20T07:59:18;21.80;53.30
24744;DHT22;12844;52.110;5.548;2022-09-20T08:01:43;21.80;53.40
24744;DHT22;12844;52.110;5.548;2022-09-20T08:04:10;21.80;53.40
24744;DHT22;12844;52.110;5.548;2022-09-20T08:06:38;21.80;53.40
24744;DHT22;12844;52.110;5.548;2022-09-20T08:09:05;21.80;53.40
24744;DHT22;12844;52.110;5.548;2022-09-20T08:11:31;21.80;53.40
24744;DHT22;12844;52.110;5.548;2022-09-20T08:13:58;21.80;53.40
24744;DHT22;12844;52.110;5.548;2022-09-20T08:16:25;21.80;53.40
24744;DHT22;12844;52.110;5.548;2022-09-20T08:18:57;21.80;53.30
24744;DHT22;12844;52.110;5.548;2022-09-20T08:21:24;21.90;53.30
24744;DHT22;12844;52.110;5.548;2022-09-20T08:23:50;21.80;53.30
24744;DHT22;12844;52.110;5.548;2022-09-20T08:26:18;21.80;53.90
24744;DHT22;12844;52.110;5.548;2022-09-20T08:28:45;21.80;53.80
24744;DHT22;12844;52.110;5.548;2022-09-20T08:31:14;21.80;53.20
24744;DHT22;12844;52.110;5.548;2022-09-20T08:33:41;21.80;53.20
24744;DHT22;12844;52.110;5.548;2022-09-20T08:36:11;21.80;53.30
24744;DHT22;12844;52.110;5.548;2022-09-20T08:38:37;21.80;53.30
24744;DHT22;12844;52.110;5.548;2022-09-20T08:41:09;21.80;53.40
24744;DHT22;12844;52.110;5.548;2022-09-20T08:43:43;21.80;53.40
24744;DHT22;12844;52.110;5.548;2022-09-20T08:46:14;21.80;53.40
24744;DHT22;12844;52.110;5.548;2022-09-20T08:48:41;21.80;53.40
24744;DHT22;12844;52.110;5.548;2022-09-20T08:51:13;21.80;53.30
24744;DHT22;12844;52.110;5.548;2022-09-20T08:53:46;21.90;53.30
24744;DHT22;12844;52.110;5.548;2022-09-20T08:56:13;21.80;53.30
24744;DHT22;12844;52.110;5.548;2022-09-20T08:58:39;21.80;53.30
24744;DHT22;12844;52.110;5.548;2022-09-20T09:01:04;21.80;53.40
24744;DHT22;12844;52.110;5.548;2022-09-20T09:03:31;21.80;53.50
24744;DHT22;12844;52.110;5.548;2022-09-20T09:05:57;21.80;54.10
24744;DHT22;12844;52.110;5.548;2022-09-20T09:08:26;21.80;53.50
24744;DHT22;12844;52.110;5.548;2022-09-20T09:11:13;21.90;53.70
24744;DHT22;12844;52.110;5.548;2022-09-20T09:14:00;21.90;53.60
24744;DHT22;12844;52.110;5.548;2022-09-20T09:16:29;21.90;53.60
24744;DHT22;12844;52.110;5.548;2022-09-20T09:18:55;21.80;53.70
24744;DHT22;12844;52.110;5.548;2022-09-20T09:21:27;21.90;53.80
24744;DHT22;12844;52.110;5.548;2022-09-20T09:24:25;21.90;53.80
24744;DHT22;12844;52.110;5.548;2022-09-20T09:27:14;21.90;53.70
24744;DHT22;12844;52.110;5.548;2022-09-20T09:29:52;21.90;53.70
24744;DHT22;12844;52.110;5.548;2022-09-20T09:32:24;21.90;53.80
24744;DHT22;12844;52.110;5.548;2022-09-20T09:34:51;21.90;53.80
24744;DHT22;12844;52.110;5.548;2022-09-20T09:37:30;21.90;53.80
24744;DHT22;12844;52.110;5.548;2022-09-20T09:40:15;22.00;53.70
24744;DHT22;12844;52.110;5.548;2022-09-20T09:42:49;22.00;53.70
24744;DHT22;12844;52.110;5.548;2022-09-20T09:45:35;22.00;53.70
24744;DHT22;12844;52.110;5.548;2022-09-20T09:48:18;22.00;53.70
24744;DHT22;12844;52.110;5.548;2022-09-20T09:50:44;22.00;53.70
24744;DHT22;12844;52.110;5.548;2022-09-20T09:53:12;22.00;53.80
24744;DHT22;12844;52.110;5.548;2022-09-20T10:01:01;21.90;53.70
24744;DHT22;12844;52.110;5.548;2022-09-20T10:06:25;22.00;53.60
24744;DHT22;12844;52.110;5.548;2022-09-20T10:09:07;22.00;53.60
24744;DHT22;12844;52.110;5.548;2022-09-20T10:11:38;22.00;53.60
24744;DHT22;12844;52.110;5.548;2022-09-20T10:14:33;21.90;53.60
24744;DHT22;12844;52.110;5.548;2022-09-20T10:17:20;22.00;53.60
24744;DHT22;12844;52.110;5.548;2022-09-20T10:19:59;22.00;53.70
24744;DHT22;12844;52.110;5.548;2022-09-20T10:22:43;22.00;53.70
24744;DHT22;12844;52.110;5.548;2022-09-20T10:28:37;22.00;53.60
24744;DHT22;12844;52.110;5.548;2022-09-20T10:34:46;22.00;53.70
24744;DHT22;12844;52.110;5.548;2022-09-20T10:39:50;21.90;53.70
24744;DHT22;12844;52.110;5.548;2022-09-20T10:42:44;22.00;53.70
24744;DHT22;12844;52.110;5.548;2022-09-20T10:45:41;22.00;53.70
24744;DHT22;12844;52.110;5.548;2022-09-20T10:48:30;22.00;53.80
24744;DHT22;12844;52.110;5.548;2022-09-20T10:51:06;22.00;53.80
24744;DHT22;12844;52.110;5.548;2022-09-20T10:56:39;22.10;53.90
24744;DHT22;12844;52.110;5.548;2022-09-20T10:59:15;22.00;54.00
24744;DHT22;12844;52.110;5.548;2022-09-20T11:04:55;22.10;53.90
24744;DHT22;12844;52.110;5.548;2022-09-20T11:13:01;22.20;53.80
24744;DHT22;12844;52.110;5.548;2022-09-20T11:15:52;22.10;53.80
24744;DHT22;12844;52.110;5.548;2022-09-20T11:18:51;22.20;53.70
24744;DHT22;12844;52.110;5.548;2022-09-20T11:27:28;22.20;53.90
24744;DHT22;12844;52.110;5.548;2022-09-20T11:30:02;22.10;54.00
24744;DHT22;12844;52.110;5.548;2022-09-20T11:32:36;22.10;54.00
24744;DHT22;12844;52.110;5.548;2022-09-20T11:35:26;22.10;54.00
24744;DHT22;12844;52.110;5.548;2022-09-20T11:41:15;22.20;54.10
24744;DHT22;12844;52.110;5.548;2022-09-20T11:43:44;22.20;54.20
24744;DHT22;12844;52.110;5.548;2022-09-20T11:46:13;22.10;54.30
24744;DHT22;12844;52.110;5.548;2022-09-20T11:48:46;22.10;54.30
24744;DHT22;12844;52.110;5.548;2022-09-20T11:56:36;22.20;54.10
24744;DHT22;12844;52.110;5.548;2022-09-20T11:59:06;22.20;54.20
24744;DHT22;12844;52.110;5.548;2022-09-20T12:01:38;22.20;54.20
24744;DHT22;12844;52.110;5.548;2022-09-20T12:04:11;22.10;54.10
24744;DHT22;12844;52.110;5.548;2022-09-20T12:06:43;22.20;54.10
24744;DHT22;12844;52.110;5.548;2022-09-20T12:09:29;22.20;54.20
24744;DHT22;12844;52.110;5.548;2022-09-20T12:11:55;22.20;54.00
24744;DHT22;12844;52.110;5.548;2022-09-20T12:14:27;22.20;54.10
24744;DHT22;12844;52.110;5.548;2022-09-20T12:16:55;22.10;54.30
24744;DHT22;12844;52.110;5.548;2022-09-20T12:24:38;22.10;54.30
24744;DHT22;12844;52.110;5.548;2022-09-20T12:30:15;22.10;54.30
24744;DHT22;12844;52.110;5.548;2022-09-20T12:32:53;22.10;54.40
24744;DHT22;12844;52.110;5.548;2022-09-20T12:38:26;22.00;54.50
24744;DHT22;12844;52.110;5.548;2022-09-20T12:41:11;22.10;54.50
24744;DHT22;12844;52.110;5.548;2022-09-20T12:44:02;22.00;54.50
24744;DHT22;12844;52.110;5.548;2022-09-20T12:46:37;22.00;54.40
24744;DHT22;12844;52.110;5.548;2022-09-20T12:49:17;22.00;54.50
24744;DHT22;12844;52.110;5.548;2022-09-20T12:52:07;22.00;54.50
24744;DHT22;12844;52.110;5.548;2022-09-20T12:55:03;22.00;54.50
24744;DHT22;12844;52.110;5.548;2022-09-20T12:57:30;22.00;54.50
24744;DHT22;12844;52.110;5.548;2022-09-20T12:59:58;22.00;54.50
24744;DHT22;12844;52.110;5.548;2022-09-20T13:05:38;22.10;54.40
24744;DHT22;12844;52.110;5.548;2022-09-20T13:08:13;22.00;54.30
24744;DHT22;12844;52.110;5.548;2022-09-20T13:10:44;22.00;54.40
24744;DHT22;12844;52.110;5.548;2022-09-20T13:13:34;22.00;54.40
24744;DHT22;12844;52.110;5.548;2022-09-20T13:16:02;22.00;54.40
24744;DHT22;12844;52.110;5.548;2022-09-20T13:18:30;22.00;54.40
24744;DHT22;12844;52.110;5.548;2022-09-20T13:20:57;22.00;54.40
24744;DHT22;12844;52.110;5.548;2022-09-20T13:23:40;22.00;54.30
24744;DHT22;12844;52.110;5.548;2022-09-20T13:26:10;22.00;54.30
24744;DHT22;12844;52.110;5.548;2022-09-20T13:28:43;22.00;54.30
24744;DHT22;12844;52.110;5.548;2022-09-20T13:33:46;22.00;54.30
24744;DHT22;12844;52.110;5.548;2022-09-20T13:36:12;22.00;54.30
24744;DHT22;12844;52.110;5.548;2022-09-20T13:38:38;22.00;54.30
24744;DHT22;12844;52.110;5.548;2022-09-20T13:41:08;22.00;54.30
24744;DHT22;12844;52.110;5.548;2022-09-20T13:43:43;22.00;54.20
24744;DHT22;12844;52.110;5.548;2022-09-20T13:46:10;22.00;54.20
24744;DHT22;12844;52.110;5.548;2022-09-20T13:48:37;22.00;54.20
24744;DHT22;12844;52.110;5.548;2022-09-20T13:51:03;22.00;54.30
24744;DHT22;12844;52.110;5.548;2022-09-20T13:53:39;22.00;54.30
24744;DHT22;12844;52.110;5.548;2022-09-20T13:56:10;22.00;54.20
24744;DHT22;12844;52.110;5.548;2022-09-20T13:58:41;22.00;54.60
24744;DHT22;12844;52.110;5.548;2022-09-20T14:01:20;22.00;54.20
24744;DHT22;12844;52.110;5.548;2022-09-20T14:03:47;22.00;54.20
24744;DHT22;12844;52.110;5.548;2022-09-20T14:06:13;22.00;54.80
24744;DHT22;12844;52.110;5.548;2022-09-20T14:08:43;22.10;54.20
24744;DHT22;12844;52.110;5.548;2022-09-20T14:11:27;22.00;54.10
24744;DHT22;12844;52.110;5.548;2022-09-20T14:13:54;22.10;54.10
24744;DHT22;12844;52.110;5.548;2022-09-20T14:16:24;22.00;54.10
24744;DHT22;12844;52.110;5.548;2022-09-20T14:18:52;22.00;54.10
24744;DHT22;12844;52.110;5.548;2022-09-20T14:21:31;22.00;54.10
24744;DHT22;12844;52.110;5.548;2022-09-20T14:24:05;22.10;54.10
24744;DHT22;12844;52.110;5.548;2022-09-20T14:26:36;22.10;54.10
24744;DHT22;12844;52.110;5.548;2022-09-20T14:35:06;22.10;54.20
24744;DHT22;12844;52.110;5.548;2022-09-20T14:37:42;22.10;54.20
24744;DHT22;12844;52.110;5.548;2022-09-20T14:40:23;22.00;54.20
24744;DHT22;12844;52.110;5.548;2022-09-20T14:45:39;22.00;54.20
24744;DHT22;12844;52.110;5.548;2022-09-20T14:50:39;22.00;54.20
24744;DHT22;12844;52.110;5.548;2022-09-20T14:55:36;22.00;54.20
24744;DHT22;12844;52.110;5.548;2022-09-20T14:58:08;22.10;54.20
24744;DHT22;12844;52.110;5.548;2022-09-20T15:00:55;22.10;54.20
24744;DHT22;12844;52.110;5.548;2022-09-20T15:03:39;22.10;54.10
24744;DHT22;12844;52.110;5.548;2022-09-20T15:06:08;22.00;54.10
24744;DHT22;12844;52.110;5.548;2022-09-20T15:08:34;22.00;54.10
24744;DHT22;12844;52.110;5.548;2022-09-20T15:11:01;22.00;54.20
24744;DHT22;12844;52.110;5.548;2022-09-20T15:13:26;22.00;54.10
24744;DHT22;12844;52.110;5.548;2022-09-20T15:15:52;22.00;54.10
24744;DHT22;12844;52.110;5.548;2022-09-20T15:18:32;22.00;54.10
24744;DHT22;12844;52.110;5.548;2022-09-20T15:20:59;22.10;54.10
24744;DHT22;12844;52.110;5.548;2022-09-20T15:23:26;22.10;54.10
24744;DHT22;12844;52.110;5.548;2022-09-20T15:25:53;22.00;54.00
24744;DHT22;12844;52.110;5.548;2022-09-20T15:28:19;22.10;54.00
24744;DHT22;12844;52.110;5.548;2022-09-20T15:30:46;22.10;54.00
24744;DHT22;12844;52.110;5.548;2022-09-20T15:33:13;22.10;54.00
24744;DHT22;12844;52.110;5.548;2022-09-20T15:35:39;22.10;54.00
24744;DHT22;12844;52.110;5.548;2022-09-20T15:38:05;22.10;54.00
24744;DHT22;12844;52.110;5.548;2022-09-20T15:40:34;22.10;54.00
24744;DHT22;12844;52.110;5.548;2022-09-20T15:42:59;22.10;54.00
24744;DHT22;12844;52.110;5.548;2022-09-20T15:45:25;22.10;54.00
24744;DHT22;12844;52.110;5.548;2022-09-20T15:47:53;22.10;54.00
24744;DHT22;12844;52.110;5.548;2022-09-20T15:50:22;22.10;54.00
24744;DHT22;12844;52.110;5.548;2022-09-20T15:52:49;22.00;54.00
24744;DHT22;12844;52.110;5.548;2022-09-20T15:55:16;22.00;54.00
24744;DHT22;12844;52.110;5.548;2022-09-20T15:57:42;22.10;54.00
24744;DHT22;12844;52.110;5.548;2022-09-20T16:00:08;22.00;54.00
24744;DHT22;12844;52.110;5.548;2022-09-20T16:02:34;22.10;54.00
24744;DHT22;12844;52.110;5.548;2022-09-20T16:05:00;22.10;54.00
24744;DHT22;12844;52.110;5.548;2022-09-20T16:07:26;22.10;54.00
24744;DHT22;12844;52.110;5.548;2022-09-20T16:09:53;22.00;54.00
24744;DHT22;12844;52.110;5.548;2022-09-20T16:12:20;22.00;53.90
24744;DHT22;12844;52.110;5.548;2022-09-20T16:14:46;22.10;54.60
24744;DHT22;12844;52.110;5.548;2022-09-20T16:17:11;22.10;54.00
24744;DHT22;12844;52.110;5.548;2022-09-20T16:19:37;22.00;53.90
24744;DHT22;12844;52.110;5.548;2022-09-20T16:22:03;22.00;53.90
24744;DHT22;12844;52.110;5.548;2022-09-20T16:24:30;22.00;53.90
24744;DHT22;12844;52.110;5.548;2022-09-20T16:26:58;22.00;53.90
24744;DHT22;12844;52.110;5.548;2022-09-20T16:29:25;22.00;53.90
24744;DHT22;12844;52.110;5.548;2022-09-20T16:31:52;22.00;53.90
24744;DHT22;12844;52.110;5.548;2022-09-20T16:34:20;22.10;53.90
24744;DHT22;12844;52.110;5.548;2022-09-20T16:36:50;22.00;53.90
24744;DHT22;12844;52.110;5.548;2022-09-20T16:39:18;22.00;53.80
24744;DHT22;12844;52.110;5.548;2022-09-20T16:41:45;22.00;53.90
24744;DHT22;12844;52.110;5.548;2022-09-20T16:44:12;22.00;53.90
24744;DHT22;12844;52.110;5.548;2022-09-20T16:46:38;22.00;53.90
24744;DHT22;12844;52.110;5.548;2022-09-20T16:49:06;22.00;53.90
24744;DHT22;12844;52.110;5.548;2022-09-20T16:51:35;22.00;53.80
24744;DHT22;12844;52.110;5.548;2022-09-20T16:54:02;22.00;53.80
24744;DHT22;12844;52.110;5.548;2022-09-20T16:56:30;22.00;53.70
24744;DHT22;12844;52.110;5.548;2022-09-20T16:59:04;22.00;53.70
24744;DHT22;12844;52.110;5.548;2022-09-20T17:01:30;22.00;53.70
24744;DHT22;12844;52.110;5.548;2022-09-20T17:03:57;22.00;53.70
24744;DHT22;12844;52.110;5.548;2022-09-20T17:06:23;22.00;53.70
24744;DHT22;12844;52.110;5.548;2022-09-20T17:08:54;22.00;53.60
24744;DHT22;12844;52.110;5.548;2022-09-20T17:11:22;22.00;53.60
24744;DHT22;12844;52.110;5.548;2022-09-20T17:13:49;22.00;53.60
24744;DHT22;12844;52.110;5.548;2022-09-20T17:16:26;22.00;53.50
24744;DHT22;12844;52.110;5.548;2022-09-20T17:18:54;22.00;53.50
24744;DHT22;12844;52.110;5.548;2022-09-20T17:21:20;21.90;53.40
24744;DHT22;12844;52.110;5.548;2022-09-20T17:23:48;22.00;53.50
24744;DHT22;12844;52.110;5.548;2022-09-20T17:26:18;22.00;53.40
24744;DHT22;12844;52.110;5.548;2022-09-20T17:28:46;21.90;53.40
24744;DHT22;12844;52.110;5.548;2022-09-20T17:31:14;22.00;53.40
24744;DHT22;12844;52.110;5.548;2022-09-20T17:33:40;22.00;53.40
24744;DHT22;12844;52.110;5.548;2022-09-20T17:36:08;22.00;53.40
24744;DHT22;12844;52.110;5.548;2022-09-20T17:38:36;22.00;53.40
24744;DHT22;12844;52.110;5.548;2022-09-20T17:41:06;21.90;53.30
24744;DHT22;12844;52.110;5.548;2022-09-20T17:43:36;21.90;53.30
24744;DHT22;12844;52.110;5.548;2022-09-20T17:46:11;21.90;54.00
24744;DHT22;12844;52.110;5.548;2022-09-20T17:48:38;21.90;53.30
24744;DHT22;12844;52.110;5.548;2022-09-20T17:51:04;21.90;53.30
24744;DHT22;12844;52.110;5.548;2022-09-20T17:53:31;21.90;53.30
24744;DHT22;12844;52.110;5.548;2022-09-20T17:55:58;21.90;53.30
24744;DHT22;12844;52.110;5.548;2022-09-20T17:58:24;21.90;53.30
24744;DHT22;12844;52.110;5.548;2022-09-20T18:00:50;21.90;53.30
24744;DHT22;12844;52.110;5.548;2022-09-20T18:03:21;21.90;53.30
24744;DHT22;12844;52.110;5.548;2022-09-20T18:05:46;21.90;53.30
24744;DHT22;12844;52.110;5.548;2022-09-20T18:08:14;21.90;53.30
24744;DHT22;12844;52.110;5.548;2022-09-20T18:10:41;21.90;53.30
24744;DHT22;12844;52.110;5.548;2022-09-20T18:13:06;21.90;53.30
24744;DHT22;12844;52.110;5.548;2022-09-20T18:15:32;21.90;53.30
24744;DHT22;12844;52.110;5.548;2022-09-20T18:17:58;21.90;53.30
24744;DHT22;12844;52.110;5.548;2022-09-20T18:20:24;21.90;53.30
24744;DHT22;12844;52.110;5.548;2022-09-20T18:22:49;21.90;53.30
24744;DHT22;12844;52.110;5.548;2022-09-20T18:25:15;21.90;53.30
24744;DHT22;12844;52.110;5.548;2022-09-20T18:27:40;21.90;53.30
24744;DHT22;12844;52.110;5.548;2022-09-20T18:30:07;21.90;53.30
24744;DHT22;12844;52.110;5.548;2022-09-20T18:32:32;21.90;53.30
24744;DHT22;12844;52.110;5.548;2022-09-20T18:34:58;21.90;53.30
24744;DHT22;12844;52.110;5.548;2022-09-20T18:37:23;21.90;53.30
24744;DHT22;12844;52.110;5.548;2022-09-20T18:39:49;21.90;53.30
24744;DHT22;12844;52.110;5.548;2022-09-20T18:42:15;21.90;53.30
24744;DHT22;12844;52.110;5.548;2022-09-20T18:44:40;21.90;53.30
24744;DHT22;12844;52.110;5.548;2022-09-20T18:47:08;21.90;53.30
24744;DHT22;12844;52.110;5.548;2022-09-20T18:49:34;21.90;53.30
24744;DHT22;12844;52.110;5.548;2022-09-20T18:52:00;21.90;53.30
24744;DHT22;12844;52.110;5.548;2022-09-20T18:54:26;21.80;53.30
24744;DHT22;12844;52.110;5.548;2022-09-20T18:56:57;21.80;53.20
24744;DHT22;12844;52.110;5.548;2022-09-20T18:59:25;21.90;53.40
24744;DHT22;12844;52.110;5.548;2022-09-20T19:20:33;21.80;53.40
24744;DHT22;12844;52.110;5.548;2022-09-20T19:23:03;21.80;53.40
24744;DHT22;12844;52.110;5.548;2022-09-20T19:25:40;21.80;53.40
24744;DHT22;12844;52.110;5.548;2022-09-20T19:28:10;21.80;53.40
24744;DHT22;12844;52.110;5.548;2022-09-20T19:30:36;21.80;53.40
24744;DHT22;12844;52.110;5.548;2022-09-20T19:33:04;21.80;53.40
24744;DHT22;12844;52.110;5.548;2022-09-20T19:35:34;21.80;53.30
24744;DHT22;12844;52.110;5.548;2022-09-20T19:38:14;21.80;53.30
24744;DHT22;12844;52.110;5.548;2022-09-20T19:40:50;21.80;53.30
24744;DHT22;12844;52.110;5.548;2022-09-20T19:43:54;21.70;53.30
24744;DHT22;12844;52.110;5.548;2022-09-20T19:46:35;21.80;53.30
24744;DHT22;12844;52.110;5.548;2022-09-20T19:52:11;21.70;53.30
24744;DHT22;12844;52.110;5.548;2022-09-20T19:54:38;21.70;53.40
24744;DHT22;12844;52.110;5.548;2022-09-20T19:57:06;21.70;53.50
24744;DHT22;12844;52.110;5.548;2022-09-20T19:59:34;21.70;53.40
24744;DHT22;12844;52.110;5.548;2022-09-20T20:02:00;21.70;53.40
24744;DHT22;12844;52.110;5.548;2022-09-20T20:04:26;21.80;53.40
24744;DHT22;12844;52.110;5.548;2022-09-20T20:07:27;21.70;53.50
24744;DHT22;12844;52.110;5.548;2022-09-20T20:10:17;21.80;53.30
24744;DHT22;12844;52.110;5.548;2022-09-20T20:13:19;21.70;53.30
24744;DHT22;12844;52.110;5.548;2022-09-20T20:16:11;21.70;53.30
24744;DHT22;12844;52.110;5.548;2022-09-20T20:19:19;21.70;53.50